createdAt,value
2018-09-04T00:00:40.810Z,59.83
2018-09-04T00:04:05.232Z,58.45
2018-09-04T00:07:29.640Z,57.03
2018-09-04T00:10:54.052Z,55.30
2018-09-04T00:14:18.474Z,59.70
2018-09-04T00:17:43.167Z,59.27
2018-09-04T00:21:07.889Z,53.70
2018-09-04T00:24:32.308Z,56.40
2018-09-04T00:27:56.693Z,57.95
2018-09-04T00:31:21.097Z,60.45
2018-09-04T00:34:45.497Z,58.38
2018-09-04T00:38:09.954Z,55.70
2018-09-04T00:41:34.347Z,58.08
2018-09-04T00:44:58.769Z,55.03
2018-09-04T00:48:23.194Z,61.13
2018-09-04T00:51:47.621Z,59.77
2018-09-04T00:55:12.056Z,53.00
2018-09-04T00:58:36.455Z,58.90
2018-09-04T01:02:00.989Z,61.18
2018-09-04T01:05:25.386Z,57.05
2018-09-04T01:08:49.824Z,60.30
2018-09-04T01:12:14.249Z,67.87
2018-09-04T01:15:38.772Z,55.88
2018-09-04T01:19:03.304Z,57.67
2018-09-04T01:22:27.718Z,58.10
2018-09-04T01:25:52.115Z,64.50
2018-09-04T01:29:16.546Z,60.95
2018-09-04T01:32:40.981Z,62.53
2018-09-04T01:36:05.425Z,58.38
2018-09-04T01:39:29.791Z,58.25
2018-09-04T01:42:54.279Z,59.27
2018-09-04T01:46:18.848Z,55.23
2018-09-04T01:49:43.260Z,60.05
2018-09-04T01:53:07.707Z,58.63
2018-09-04T01:56:32.109Z,55.95
2018-09-04T01:59:56.505Z,55.80
2018-09-04T02:03:20.924Z,58.20
2018-09-04T02:06:45.364Z,60.50
2018-09-04T02:10:09.743Z,63.30
2018-09-04T02:13:34.193Z,60.50
2018-09-04T02:16:58.610Z,59.05
2018-09-04T02:20:22.992Z,55.60
2018-09-04T02:23:47.405Z,61.25
2018-09-04T02:27:11.852Z,61.88
2018-09-04T02:30:36.252Z,57.83
2018-09-04T02:34:00.635Z,57.27
2018-09-04T02:37:25.057Z,55.92
2018-09-04T02:40:49.511Z,61.58
2018-09-04T02:44:13.910Z,61.02
2018-09-04T02:47:38.316Z,60.40
2018-09-04T02:51:02.757Z,63.58
2018-09-04T02:54:27.271Z,64.25
2018-09-04T02:57:51.645Z,61.02
2018-09-04T03:01:16.089Z,58.58
2018-09-04T03:04:41.184Z,55.08
2018-09-04T03:08:05.615Z,61.28
2018-09-04T03:11:30.077Z,61.48
2018-09-04T03:14:54.479Z,56.48
2018-09-04T03:18:18.998Z,58.87
2018-09-04T03:21:43.393Z,59.58
2018-09-04T03:25:07.811Z,63.38
2018-09-04T03:28:32.224Z,63.13
2018-09-04T03:31:56.765Z,70.65
2018-09-04T03:35:21.181Z,62.75
2018-09-04T03:38:45.554Z,65.42
2018-09-04T03:42:10.005Z,69.82
2018-09-04T03:45:34.428Z,62.27
2018-09-04T03:48:58.837Z,70.65
2018-09-04T03:52:23.331Z,85.28
2018-09-04T03:55:47.780Z,102.80
2018-09-04T03:59:12.237Z,94.62
2018-09-04T04:02:36.678Z,110.97
2018-09-04T04:06:01.094Z,151.93
2018-09-04T04:09:25.499Z,175.10
2018-09-04T04:12:50.000Z,151.97
2018-09-04T04:16:14.482Z,105.65
2018-09-04T04:19:38.992Z,113.03
2018-09-04T04:23:03.401Z,105.55
2018-09-04T04:26:27.811Z,103.97
2018-09-04T04:29:52.233Z,100.07
2018-09-04T04:33:16.640Z,109.55
2018-09-04T04:36:41.068Z,101.30
2018-09-04T04:40:06.305Z,95.97
2018-09-04T04:43:31.313Z,107.58
2018-09-04T04:46:55.760Z,106.60
2018-09-04T04:50:20.203Z,117.90
2018-09-04T04:53:44.635Z,119.15
2018-09-04T04:57:09.162Z,117.82
2018-09-04T05:00:33.695Z,123.80
2018-09-04T05:03:58.640Z,128.53
2018-09-04T05:07:23.083Z,125.45
2018-09-04T05:10:47.502Z,127.27
2018-09-04T05:14:11.977Z,127.17
2018-09-04T05:17:36.442Z,137.35
2018-09-04T05:21:00.915Z,123.53
2018-09-04T05:24:25.316Z,120.50
2018-09-04T05:27:49.734Z,120.62
2018-09-04T05:31:14.145Z,117.57
2018-09-04T05:34:48.618Z,128.35
2018-09-04T05:38:14.309Z,121.57
2018-09-04T05:41:38.792Z,112.88
2018-09-04T05:45:04.025Z,127.87
2018-09-04T05:48:28.539Z,128.55
2018-09-04T05:51:53.028Z,128.90
2018-09-04T05:55:17.576Z,104.87
2018-09-04T05:58:42.032Z,122.30
2018-09-04T06:02:06.567Z,99.52
2018-09-04T06:05:31.031Z,92.88
2018-09-04T06:08:55.478Z,93.30
2018-09-04T06:12:20.012Z,98.40
2018-09-04T06:15:44.410Z,80.15
2018-09-04T06:19:08.824Z,90.90
2018-09-04T06:22:33.257Z,98.07
2018-09-04T06:25:57.709Z,93.67
2018-09-04T06:29:22.231Z,97.78
2018-09-04T06:32:46.644Z,90.67
2018-09-04T06:36:11.061Z,92.82
2018-09-04T06:39:35.546Z,87.67
2018-09-04T06:42:59.942Z,74.85
2018-09-04T06:46:24.429Z,70.12
2018-09-04T06:49:48.875Z,63.35
2018-09-04T06:53:13.294Z,73.05
2018-09-04T06:56:37.681Z,53.83
2018-09-04T07:00:02.113Z,58.78
2018-09-04T07:03:26.529Z,70.57
2018-09-04T07:06:51.942Z,61.77
2018-09-04T07:10:16.341Z,67.30
2018-09-04T07:13:40.765Z,66.77
2018-09-04T07:17:05.262Z,70.37
2018-09-04T07:20:29.674Z,69.45
2018-09-04T07:23:54.122Z,107.75
2018-09-04T07:27:18.602Z,78.92
2018-09-04T07:30:43.078Z,70.28
2018-09-04T07:34:07.501Z,83.42
2018-09-04T07:37:31.965Z,79.03
2018-09-04T07:40:56.419Z,72.17
2018-09-04T07:44:20.848Z,69.80
2018-09-04T07:47:45.292Z,75.45
2018-09-04T07:51:09.691Z,80.15
2018-09-04T07:54:34.135Z,74.25
2018-09-04T07:57:58.606Z,73.35
2018-09-04T08:01:22.992Z,70.95
2018-09-04T08:04:47.473Z,73.97
2018-09-04T08:08:11.916Z,66.95
2018-09-04T08:11:36.376Z,73.60
2018-09-04T08:15:00.822Z,70.92
2018-09-04T08:18:25.242Z,70.17
2018-09-04T08:21:49.717Z,64.75
2018-09-04T08:25:14.161Z,75.15
2018-09-04T08:28:38.578Z,73.30
2018-09-04T08:32:03.027Z,71.90
2018-09-04T08:35:27.435Z,75.12
2018-09-04T08:38:52.639Z,79.55
2018-09-04T08:42:17.058Z,78.12
2018-09-04T08:45:41.511Z,74.70
2018-09-04T08:49:05.998Z,79.70
2018-09-04T08:52:30.460Z,83.62
2018-09-04T08:55:54.893Z,75.17
2018-09-04T08:59:19.425Z,82.25
2018-09-04T09:02:43.863Z,73.50
2018-09-04T09:06:08.363Z,78.12
2018-09-04T09:09:32.789Z,76.40
2018-09-04T09:12:57.244Z,86.55
2018-09-04T09:16:21.662Z,88.45
2018-09-04T09:19:46.129Z,92.08
2018-09-04T09:23:10.626Z,87.12
2018-09-04T09:26:35.107Z,83.60
2018-09-04T09:29:59.563Z,87.22
2018-09-04T09:33:23.982Z,94.52
2018-09-04T09:36:48.546Z,85.15
2018-09-04T09:40:12.861Z,86.75
2018-09-04T09:43:37.310Z,90.95
2018-09-04T09:47:03.817Z,88.65
2018-09-04T09:50:28.289Z,96.67
2018-09-04T09:53:52.721Z,92.10
2018-09-04T09:57:17.128Z,95.53
2018-09-04T10:00:46.861Z,91.92
2018-09-04T10:04:11.323Z,97.02
2018-09-04T10:07:35.798Z,94.07
2018-09-04T10:11:00.175Z,93.60
2018-09-04T10:14:24.663Z,96.47
2018-09-04T10:17:49.093Z,82.45
2018-09-04T10:21:13.569Z,71.62
2018-09-04T10:24:38.644Z,77.12
2018-09-04T10:28:03.131Z,76.17
2018-09-04T10:31:27.560Z,61.45
2018-09-04T10:34:51.962Z,53.50
2018-09-04T10:38:16.433Z,68.83
2018-09-04T10:41:40.919Z,65.40
2018-09-04T10:45:05.738Z,63.95
2018-09-04T10:48:31.233Z,58.10
2018-09-04T10:51:55.659Z,62.93
2018-09-04T10:55:20.181Z,64.77
2018-09-04T10:58:44.629Z,65.45
2018-09-04T11:02:09.092Z,61.80
2018-09-04T11:05:33.503Z,64.40
2018-09-04T11:08:57.921Z,63.25
2018-09-04T11:12:22.396Z,65.83
2018-09-04T11:15:46.875Z,69.85
2018-09-04T11:19:14.378Z,62.33
2018-09-04T11:22:38.822Z,59.13
2018-09-04T11:26:03.254Z,60.90
2018-09-04T11:29:27.678Z,64.95
2018-09-04T11:32:52.108Z,57.53
2018-09-04T11:36:16.493Z,54.95
2018-09-04T11:39:40.946Z,61.08
2018-09-04T11:43:05.595Z,58.95
2018-09-04T11:46:30.028Z,57.10
2018-09-04T11:49:54.444Z,60.78
2018-09-04T11:53:18.879Z,55.40
2018-09-04T11:56:43.321Z,52.85
2018-09-04T12:00:10.196Z,55.92
2018-09-04T12:03:34.645Z,56.80
2018-09-04T12:06:59.074Z,53.05
2018-09-04T12:10:23.486Z,52.88
2018-09-04T12:13:47.893Z,55.17
2018-09-04T12:17:12.301Z,58.35
2018-09-04T12:20:42.485Z,48.08
2018-09-04T12:24:06.925Z,48.25
2018-09-04T12:27:32.170Z,48.08
2018-09-04T12:30:57.096Z,44.08
2018-09-04T12:34:21.526Z,42.17
2018-09-04T12:37:45.928Z,44.33
2018-09-04T12:41:17.328Z,45.85
2018-09-04T12:44:41.748Z,43.10
2018-09-04T12:48:06.218Z,50.98
2018-09-04T12:51:30.578Z,49.10
2018-09-04T12:54:55.412Z,41.63
2018-09-04T12:58:19.818Z,40.05
2018-09-04T13:01:44.228Z,40.23
2018-09-04T13:05:08.902Z,37.78
2018-09-04T13:08:34.221Z,45.65
2018-09-04T13:11:58.740Z,41.77
2018-09-04T13:15:23.240Z,42.15
2018-09-04T13:18:47.694Z,45.80
2018-09-04T13:22:12.085Z,47.27
2018-09-04T13:25:36.569Z,42.95
2018-09-04T13:29:01.098Z,38.02
2018-09-04T13:32:32.603Z,40.75
2018-09-04T13:35:57.076Z,39.38
2018-09-04T13:39:21.503Z,39.85
2018-09-04T13:42:45.890Z,41.05
2018-09-04T13:46:10.333Z,40.00
2018-09-04T13:49:34.851Z,40.10
2018-09-04T13:52:59.166Z,41.28
2018-09-04T13:56:23.605Z,40.28
2018-09-04T13:59:48.013Z,40.30
2018-09-04T14:03:12.405Z,39.05
2018-09-04T14:06:36.981Z,38.02
2018-09-04T14:10:01.497Z,40.92
2018-09-04T14:13:25.901Z,35.33
2018-09-04T14:16:50.414Z,36.30
2018-09-04T14:20:14.783Z,34.53
2018-09-04T14:23:39.184Z,40.38
2018-09-04T14:27:03.638Z,34.40
2018-09-04T14:30:28.078Z,35.75
2018-09-04T14:33:52.460Z,36.60
2018-09-04T14:37:16.957Z,36.28
2018-09-04T14:40:41.292Z,35.58
2018-09-04T14:44:05.920Z,33.65
2018-09-04T14:47:31.402Z,33.73
2018-09-04T14:50:56.448Z,37.65
2018-09-04T14:54:20.842Z,35.30
2018-09-04T14:57:45.237Z,32.03
2018-09-04T15:01:09.636Z,37.42
2018-09-04T15:04:34.672Z,40.52
2018-09-04T15:07:59.086Z,39.35
2018-09-04T15:11:23.506Z,39.05
2018-09-04T15:14:47.917Z,44.53
2018-09-04T15:18:12.321Z,37.10
2018-09-04T15:21:36.764Z,37.70
2018-09-04T15:25:01.189Z,39.20
2018-09-04T15:28:25.564Z,36.45
2018-09-04T15:31:49.947Z,37.53
2018-09-04T15:35:14.391Z,39.50
2018-09-04T15:38:38.769Z,39.05
2018-09-04T15:42:03.176Z,41.60
2018-09-04T15:45:27.577Z,41.08
2018-09-04T15:48:57.125Z,39.23
2018-09-04T15:52:21.510Z,40.70
2018-09-04T15:55:45.961Z,39.75
2018-09-04T15:59:10.830Z,38.45
2018-09-04T16:02:35.258Z,43.50
2018-09-04T16:06:00.515Z,35.08
2018-09-04T16:09:25.287Z,40.20
2018-09-04T16:12:50.440Z,39.88
2018-09-04T16:16:15.653Z,43.95
2018-09-04T16:19:40.729Z,36.70
2018-09-04T16:23:06.945Z,35.60
2018-09-04T16:26:31.519Z,34.35
2018-09-04T16:29:57.173Z,37.80
2018-09-04T16:33:21.975Z,27.30
2018-09-04T16:36:46.472Z,26.02
2018-09-04T16:40:10.978Z,25.45
2018-09-04T16:43:36.207Z,21.97
2018-09-04T16:47:00.765Z,20.27
2018-09-04T16:50:25.329Z,19.77
2018-09-04T16:53:49.745Z,16.85
2018-09-04T16:57:14.269Z,17.80
2018-09-04T17:00:38.771Z,16.65
2018-09-04T17:04:03.257Z,18.25
2018-09-04T17:07:27.667Z,17.35
2018-09-04T17:10:52.617Z,18.77
2018-09-04T17:14:17.267Z,17.32
2018-09-04T17:17:43.090Z,16.25
2018-09-04T17:21:08.177Z,17.12
2018-09-04T17:24:33.254Z,16.05
2018-09-04T17:27:58.313Z,19.05
2018-09-04T17:31:22.968Z,17.02
2018-09-04T17:34:47.684Z,17.17
2018-09-04T17:38:12.892Z,15.55
2018-09-04T17:41:37.620Z,14.55
2018-09-04T17:45:02.402Z,12.82
2018-09-04T17:48:27.222Z,15.38
2018-09-04T17:51:52.099Z,12.15
2018-09-04T17:55:16.721Z,13.70
2018-09-04T17:58:41.555Z,11.73
2018-09-04T18:02:06.474Z,11.78
2018-09-04T18:05:31.297Z,14.33
2018-09-04T18:08:55.999Z,13.22
2018-09-04T18:12:20.871Z,12.30
2018-09-04T18:15:45.570Z,13.13
2018-09-04T18:19:10.331Z,17.07
2018-09-04T18:22:35.085Z,18.12
2018-09-04T18:25:59.653Z,16.87
2018-09-04T18:29:24.449Z,18.92
2018-09-04T18:32:49.218Z,18.73
2018-09-04T18:36:13.919Z,18.40
2018-09-04T18:39:38.620Z,19.55
2018-09-04T18:43:03.320Z,20.82
2018-09-04T18:46:28.117Z,17.73
2018-09-04T18:49:52.935Z,17.85
2018-09-04T18:53:17.735Z,19.45
2018-09-04T18:56:42.296Z,21.40
2018-09-04T19:00:07.508Z,19.20
2018-09-04T19:03:31.925Z,18.85
2018-09-04T19:06:56.376Z,19.30
2018-09-04T19:10:20.813Z,17.60
2018-09-04T19:13:45.280Z,17.70
2018-09-04T19:17:09.746Z,19.32
2018-09-04T19:20:34.231Z,19.17
2018-09-04T19:23:58.783Z,19.23
2018-09-04T19:27:23.179Z,18.80
2018-09-04T19:30:47.621Z,21.20
2018-09-04T19:34:12.043Z,18.30
2018-09-04T19:37:36.549Z,17.52
2018-09-04T19:41:00.952Z,19.12
2018-09-04T19:44:25.398Z,19.07
2018-09-04T19:47:49.822Z,20.60
2018-09-04T19:51:14.324Z,20.43
2018-09-04T19:54:38.875Z,20.43
2018-09-04T19:58:03.323Z,19.52
2018-09-04T20:01:27.769Z,20.12
2018-09-04T20:04:56.377Z,20.02
2018-09-04T20:08:21.533Z,21.60
2018-09-04T20:11:47.560Z,21.20
2018-09-04T20:15:13.312Z,20.68
2018-09-04T20:18:38.731Z,23.30
2018-09-04T20:22:04.200Z,20.35
2018-09-04T20:25:29.039Z,20.60
2018-09-04T20:28:53.482Z,21.27
2018-09-04T20:32:19.419Z,20.45
2018-09-04T20:35:44.134Z,22.70
2018-09-04T20:39:08.545Z,23.40
2018-09-04T20:42:33.758Z,23.02
2018-09-04T20:45:58.175Z,21.75
2018-09-04T20:49:22.652Z,21.07
2018-09-04T20:52:47.179Z,23.90
2018-09-04T20:56:11.656Z,22.40
2018-09-04T20:59:53.061Z,25.40
2018-09-04T21:03:34.434Z,24.45
2018-09-04T21:06:57.244Z,25.82
2018-09-04T21:10:21.707Z,23.00
2018-09-04T21:13:46.167Z,29.95
2018-09-04T21:17:10.712Z,30.35
2018-09-04T21:20:35.178Z,33.25
2018-09-04T21:23:59.639Z,28.57
2018-09-04T21:27:24.079Z,31.82
2018-09-04T21:30:48.511Z,31.97
2018-09-04T21:34:12.922Z,33.98
2018-09-04T21:37:37.339Z,32.42
2018-09-04T21:41:01.748Z,33.40
2018-09-04T21:44:26.159Z,35.03
2018-09-04T21:47:50.644Z,32.63
2018-09-04T21:51:15.156Z,34.33
2018-09-04T21:54:40.663Z,31.10
2018-09-04T21:58:05.278Z,33.42
2018-09-04T22:01:29.719Z,32.17
2018-09-04T22:04:54.151Z,34.55
2018-09-04T22:08:18.614Z,31.93
2018-09-04T22:11:43.359Z,30.60
2018-09-04T22:15:07.863Z,33.00
2018-09-04T22:18:32.321Z,31.33
2018-09-04T22:21:56.758Z,35.20
2018-09-04T22:25:21.300Z,28.87
2018-09-04T22:28:45.785Z,31.50
2018-09-04T22:32:11.244Z,30.65
2018-09-04T22:35:35.710Z,34.60
2018-09-04T22:39:00.217Z,31.17
2018-09-04T22:42:24.638Z,33.20
2018-09-04T22:45:49.065Z,33.73
2018-09-04T22:49:13.574Z,34.23
2018-09-04T22:52:38.044Z,34.38
2018-09-04T22:56:02.477Z,33.50
2018-09-04T22:59:27.626Z,34.30
2018-09-04T23:02:52.085Z,35.58
2018-09-04T23:06:16.544Z,36.15
2018-09-04T23:09:40.991Z,36.00
2018-09-04T23:13:05.461Z,37.95
2018-09-04T23:16:29.906Z,38.00
2018-09-04T23:19:54.371Z,39.53
2018-09-04T23:23:18.797Z,37.15
2018-09-04T23:26:43.223Z,39.67
2018-09-04T23:30:07.731Z,36.63
2018-09-04T23:33:33.211Z,34.78
2018-09-04T23:36:57.682Z,34.05
2018-09-04T23:40:22.098Z,33.28
2018-09-04T23:43:46.551Z,37.45
2018-09-04T23:47:10.967Z,31.95
2018-09-04T23:50:35.462Z,36.28
2018-09-04T23:53:59.928Z,35.05
2018-09-04T23:57:24.396Z,34.55
